Wheeling, West Virginia
Current Conditions -  °F | °C
As of 7:53 PM on Monday 26 Jan 2015 (Local Time) from KHLG Reporting Station
Overcast Overcast  
Wind Chill: 17°   Ceiling: 1400
Heat Index: 24°   Visibility: 10mi
Dew Point: 20°   Wind: 6mph
Humidity: 84%   Direction: 270°W
Pressure: 29.83"   Gusts: NA
Location:  40.06°N, 80.72°W
Report Text: KHLG 270053Z 27005KT 10SM OVC014 M04/M07 A2983 RMK AO2 SLP119 T10441067
Loading
Personal Weather Stations






























Interactive Weather Map New forecast layout! Learn more

10-Day Weather Forecast

Advertisements
Track Severe Weather on mobile